createdAt,value
2023-08-29T00:00:10.679Z,5.27
2023-08-29T00:02:42.116Z,4.90
2023-08-29T00:05:09.844Z,5.13
2023-08-29T00:07:37.244Z,4.33
2023-08-29T00:10:04.668Z,7.90
2023-08-29T00:12:33.280Z,5.57
2023-08-29T00:15:00.608Z,4.70
2023-08-29T00:17:27.849Z,4.53
2023-08-29T00:19:54.906Z,5.80
2023-08-29T00:22:21.664Z,4.93
2023-08-29T00:24:48.692Z,5.33
2023-08-29T00:27:16.016Z,7.63
2023-08-29T00:29:44.104Z,6.97
2023-08-29T00:32:11.209Z,5.70
2023-08-29T00:34:38.230Z,5.20
2023-08-29T00:37:05.388Z,6.07
2023-08-29T00:39:32.176Z,8.50
2023-08-29T00:41:58.893Z,7.07
2023-08-29T00:44:25.462Z,9.57
2023-08-29T00:46:52.388Z,7.20
2023-08-29T00:49:21.251Z,8.53
2023-08-29T00:51:47.884Z,8.87
2023-08-29T00:54:15.483Z,9.00
2023-08-29T00:56:42.407Z,9.07
2023-08-29T00:59:09.003Z,8.57
2023-08-29T01:01:36.880Z,9.83
2023-08-29T01:04:03.924Z,7.97
2023-08-29T01:06:32.132Z,12.57
2023-08-29T01:09:01.765Z,11.03
2023-08-29T01:11:47.085Z,10.07
2023-08-29T01:14:19.796Z,9.37
2023-08-29T01:16:50.352Z,9.87
2023-08-29T01:19:16.919Z,8.60
2023-08-29T01:21:48.455Z,10.60
2023-08-29T01:24:23.627Z,10.53
2023-08-29T01:26:50.538Z,9.47
2023-08-29T01:29:17.222Z,8.63
2023-08-29T01:31:44.226Z,8.50
2023-08-29T01:34:11.127Z,9.50
2023-08-29T01:36:41.526Z,11.10
2023-08-29T01:39:08.241Z,8.73
2023-08-29T01:41:35.128Z,9.30
2023-08-29T01:44:02.960Z,9.73
2023-08-29T01:46:29.922Z,9.30
2023-08-29T01:48:58.597Z,12.47
2023-08-29T01:51:25.462Z,9.43
2023-08-29T01:53:52.772Z,9.50
2023-08-29T01:56:20.952Z,10.50
2023-08-29T01:58:47.861Z,8.67
2023-08-29T02:01:22.534Z,9.20
2023-08-29T02:03:50.784Z,9.10
2023-08-29T02:06:17.402Z,9.07
2023-08-29T02:08:44.004Z,9.77
2023-08-29T02:11:10.614Z,9.40
2023-08-29T02:13:37.198Z,9.40
2023-08-29T02:16:04.120Z,9.93
2023-08-29T02:18:31.030Z,9.93
2023-08-29T02:20:57.613Z,10.27
2023-08-29T02:23:24.263Z,10.03
2023-08-29T02:26:03.768Z,9.50
2023-08-29T02:28:31.484Z,8.40
2023-08-29T02:31:03.892Z,12.00
2023-08-29T02:33:30.942Z,10.77
2023-08-29T02:35:57.986Z,11.53
2023-08-29T02:38:24.501Z,12.00
2023-08-29T02:40:51.065Z,10.23
2023-08-29T02:43:17.698Z,9.47
2023-08-29T02:45:44.230Z,9.83
2023-08-29T02:48:11.269Z,10.70
2023-08-29T02:50:37.929Z,10.30
2023-08-29T02:53:04.536Z,9.27
2023-08-29T02:55:31.139Z,9.90
2023-08-29T02:57:57.737Z,12.50
2023-08-29T03:00:24.271Z,11.07
2023-08-29T03:02:50.978Z,11.87
2023-08-29T03:05:17.900Z,13.33
2023-08-29T03:07:44.529Z,12.63
2023-08-29T03:10:11.272Z,12.50
2023-08-29T03:12:37.856Z,16.30
2023-08-29T03:15:04.637Z,12.63
2023-08-29T03:17:31.300Z,14.07
2023-08-29T03:19:57.881Z,11.23
2023-08-29T03:22:24.444Z,10.50
2023-08-29T03:24:51.061Z,9.70
2023-08-29T03:27:17.613Z,11.93
2023-08-29T03:29:44.184Z,9.37
2023-08-29T03:32:10.782Z,10.50
2023-08-29T03:34:38.777Z,10.83
2023-08-29T03:37:06.552Z,13.83
2023-08-29T03:39:33.161Z,12.57
2023-08-29T03:41:59.728Z,12.07
2023-08-29T03:44:26.330Z,12.40
2023-08-29T03:46:52.985Z,12.37
2023-08-29T03:49:19.851Z,12.10
2023-08-29T03:51:46.630Z,12.53
2023-08-29T03:54:13.219Z,12.27
2023-08-29T03:56:40.965Z,12.47
2023-08-29T03:59:07.984Z,13.07
2023-08-29T04:01:34.575Z,13.20
2023-08-29T04:04:01.339Z,17.20
2023-08-29T04:06:28.543Z,14.77
2023-08-29T04:08:55.882Z,11.87
2023-08-29T04:11:22.497Z,13.93
2023-08-29T04:14:08.994Z,15.93
2023-08-29T04:16:56.870Z,14.90
2023-08-29T04:19:43.356Z,15.07
2023-08-29T04:22:30.006Z,20.57
2023-08-29T04:25:05.638Z,19.63
2023-08-29T04:27:52.330Z,20.87
2023-08-29T04:30:38.882Z,17.37
2023-08-29T04:33:26.702Z,13.33
2023-08-29T04:36:05.036Z,17.93
2023-08-29T04:38:51.593Z,14.83
2023-08-29T04:41:39.367Z,17.30
2023-08-29T04:44:26.193Z,15.53
2023-08-29T04:46:53.071Z,16.53
2023-08-29T04:49:19.734Z,20.40
2023-08-29T04:51:46.270Z,16.00
2023-08-29T04:54:12.954Z,17.60
2023-08-29T04:56:39.574Z,21.47
2023-08-29T04:59:06.329Z,20.83
2023-08-29T05:01:33.043Z,19.23
2023-08-29T05:03:59.666Z,20.13
2023-08-29T05:06:26.641Z,23.43
2023-08-29T05:08:53.159Z,18.27
2023-08-29T05:11:19.755Z,18.57
2023-08-29T05:13:46.310Z,22.00
2023-08-29T05:16:12.948Z,19.63
2023-08-29T05:18:39.614Z,17.10
2023-08-29T05:21:06.139Z,19.17
2023-08-29T05:23:32.695Z,19.13
2023-08-29T05:25:59.358Z,21.20
2023-08-29T05:28:26.018Z,20.93
2023-08-29T05:30:52.558Z,20.23
2023-08-29T05:33:19.102Z,19.70
2023-08-29T05:35:45.677Z,20.37
2023-08-29T05:38:12.249Z,18.40
2023-08-29T05:40:38.861Z,19.77
2023-08-29T05:43:05.430Z,16.63
2023-08-29T05:45:32.130Z,17.63
2023-08-29T05:47:58.689Z,17.53
2023-08-29T05:50:25.497Z,19.33
2023-08-29T05:52:53.157Z,19.80
2023-08-29T05:55:19.759Z,18.97
2023-08-29T05:57:46.328Z,20.70
2023-08-29T06:00:15.232Z,21.53
2023-08-29T06:02:41.900Z,21.63
2023-08-29T06:05:09.004Z,18.70
2023-08-29T06:07:35.910Z,21.13
2023-08-29T06:10:03.319Z,21.60
2023-08-29T06:12:30.080Z,23.20
2023-08-29T06:14:57.753Z,20.63
2023-08-29T06:17:24.475Z,20.87
2023-08-29T06:19:51.283Z,21.27
2023-08-29T06:22:17.902Z,18.73
2023-08-29T06:24:44.662Z,19.77
2023-08-29T06:27:11.303Z,19.30
2023-08-29T06:29:38.162Z,19.80
2023-08-29T06:32:04.847Z,18.57
2023-08-29T06:34:31.514Z,20.20
2023-08-29T06:36:58.346Z,17.43
2023-08-29T06:39:24.887Z,19.13
2023-08-29T06:41:51.556Z,20.17
2023-08-29T06:44:18.126Z,19.50
2023-08-29T06:46:44.741Z,21.13
2023-08-29T06:49:11.282Z,21.43
2023-08-29T06:51:37.885Z,18.67
2023-08-29T06:54:04.561Z,22.37
2023-08-29T06:56:31.268Z,20.03
2023-08-29T06:58:59.303Z,23.43
2023-08-29T07:01:26.020Z,22.27
2023-08-29T07:03:53.372Z,19.63
2023-08-29T07:06:19.996Z,21.77
2023-08-29T07:08:48.580Z,20.90
2023-08-29T07:11:15.139Z,17.80
2023-08-29T07:13:41.702Z,22.03
2023-08-29T07:16:08.292Z,22.80
2023-08-29T07:18:34.899Z,20.13
2023-08-29T07:21:02.313Z,22.77
2023-08-29T07:23:29.779Z,18.30
2023-08-29T07:25:56.698Z,19.23
2023-08-29T07:28:24.366Z,20.53
2023-08-29T07:30:53.868Z,22.63
2023-08-29T07:33:20.981Z,21.63
2023-08-29T07:35:49.007Z,19.43
2023-08-29T07:38:18.921Z,18.73
2023-08-29T07:40:46.977Z,21.57
2023-08-29T07:43:15.891Z,20.37
2023-08-29T07:45:42.739Z,19.53
2023-08-29T07:48:09.676Z,17.27
2023-08-29T07:50:36.534Z,19.80
2023-08-29T07:53:03.406Z,20.63
2023-08-29T07:55:29.989Z,22.47
2023-08-29T07:58:00.148Z,15.93
2023-08-29T08:00:29.402Z,17.63
2023-08-29T08:02:56.867Z,19.10
2023-08-29T08:05:23.532Z,18.30
2023-08-29T08:07:52.179Z,17.83
2023-08-29T08:10:19.189Z,16.07
2023-08-29T08:12:48.276Z,17.27
2023-08-29T08:15:15.767Z,17.57
2023-08-29T08:17:42.330Z,16.53
2023-08-29T08:20:09.560Z,19.37
2023-08-29T08:22:36.888Z,16.33
2023-08-29T08:25:03.740Z,18.20
2023-08-29T08:27:33.482Z,17.97
2023-08-29T08:30:01.139Z,16.33
2023-08-29T08:32:27.900Z,13.10
2023-08-29T08:34:57.605Z,13.63
2023-08-29T08:37:24.355Z,15.57
2023-08-29T08:39:51.002Z,16.30
2023-08-29T08:42:19.562Z,15.27
2023-08-29T08:44:46.130Z,14.80
2023-08-29T08:47:13.668Z,14.83
2023-08-29T08:49:40.850Z,14.33
2023-08-29T08:52:08.689Z,15.10
2023-08-29T08:54:35.525Z,14.77
2023-08-29T08:57:02.467Z,13.77
2023-08-29T08:59:29.056Z,12.33
2023-08-29T09:01:56.539Z,15.43
2023-08-29T09:04:24.270Z,15.17
2023-08-29T09:06:50.926Z,13.47
2023-08-29T09:09:24.922Z,13.00
2023-08-29T09:11:52.429Z,12.93
2023-08-29T09:14:19.214Z,12.27
2023-08-29T09:16:46.139Z,12.67
2023-08-29T09:19:14.276Z,11.40
2023-08-29T09:21:44.112Z,9.93
2023-08-29T09:24:14.036Z,11.63
2023-08-29T09:26:44.042Z,14.03
2023-08-29T09:29:21.122Z,8.63
2023-08-29T09:31:48.805Z,10.17
2023-08-29T09:34:25.737Z,10.50
2023-08-29T09:36:52.467Z,9.23
2023-08-29T09:39:20.896Z,9.93
2023-08-29T09:42:06.945Z,11.63
2023-08-29T09:44:38.072Z,10.43
2023-08-29T09:47:05.737Z,12.77
2023-08-29T09:49:47.345Z,8.03
2023-08-29T09:52:14.895Z,8.10
2023-08-29T09:54:46.273Z,6.77
2023-08-29T09:57:14.484Z,7.17
2023-08-29T09:59:42.567Z,8.27
2023-08-29T10:02:10.760Z,8.27
2023-08-29T10:04:38.254Z,8.83
2023-08-29T10:07:06.913Z,8.03
2023-08-29T10:09:33.739Z,10.07
2023-08-29T10:12:01.481Z,9.20
2023-08-29T10:14:29.866Z,7.67
2023-08-29T10:16:59.941Z,7.87
2023-08-29T10:19:28.675Z,9.10
2023-08-29T10:21:55.443Z,7.47
2023-08-29T10:24:23.164Z,7.30
2023-08-29T10:26:50.901Z,10.73
2023-08-29T10:29:18.214Z,8.37
2023-08-29T10:31:45.854Z,7.07
2023-08-29T10:34:13.306Z,7.13
2023-08-29T10:36:40.474Z,6.40
2023-08-29T10:39:10.698Z,5.10
2023-08-29T10:41:47.327Z,4.23
2023-08-29T10:44:32.315Z,4.60
2023-08-29T10:47:15.862Z,5.17
2023-08-29T10:49:43.554Z,6.13
2023-08-29T10:52:10.647Z,5.77
2023-08-29T10:54:37.649Z,4.53
2023-08-29T10:57:24.378Z,4.33
2023-08-29T10:59:50.966Z,5.03
2023-08-29T11:02:27.575Z,5.50
2023-08-29T11:05:15.446Z,5.27
2023-08-29T11:07:42.317Z,4.37
2023-08-29T11:10:12.183Z,4.73
2023-08-29T11:12:58.768Z,5.40
2023-08-29T11:15:45.218Z,2.83
2023-08-29T11:18:31.205Z,5.57
2023-08-29T11:20:58.618Z,6.27
2023-08-29T11:23:26.144Z,5.23
2023-08-29T11:25:52.905Z,4.67
2023-08-29T11:28:19.588Z,3.50
2023-08-29T11:30:47.029Z,3.23
2023-08-29T11:33:13.822Z,3.00
2023-08-29T11:35:40.441Z,3.47
2023-08-29T11:38:07.496Z,3.80
2023-08-29T11:40:43.437Z,2.40
2023-08-29T11:44:12.459Z,2.83
2023-08-29T11:46:11.466Z,4.10
2023-08-29T11:48:38.742Z,3.03
2023-08-29T11:51:08.798Z,3.17
2023-08-29T11:53:36.607Z,3.97
2023-08-29T11:56:10.032Z,3.67
2023-08-29T11:58:37.644Z,5.27
2023-08-29T12:01:12.215Z,2.53
2023-08-29T12:03:39.807Z,2.70
2023-08-29T12:06:13.396Z,3.67
2023-08-29T12:08:45.365Z,3.10
2023-08-29T12:11:14.911Z,3.13
2023-08-29T12:13:44.409Z,3.97
2023-08-29T12:16:15.699Z,2.80
2023-08-29T12:18:42.317Z,4.07
2023-08-29T12:21:12.012Z,3.03
2023-08-29T12:23:38.796Z,6.60
2023-08-29T12:26:05.437Z,2.60
2023-08-29T12:28:31.998Z,2.53
2023-08-29T12:30:58.681Z,2.80
2023-08-29T12:33:25.270Z,2.43
2023-08-29T12:35:51.951Z,3.70
2023-08-29T12:38:19.560Z,4.37
2023-08-29T12:40:46.550Z,3.03
2023-08-29T12:43:16.986Z,3.10
2023-08-29T12:45:56.801Z,3.83
2023-08-29T12:48:26.342Z,1.80
2023-08-29T12:50:52.960Z,2.57
2023-08-29T12:53:19.745Z,2.40
2023-08-29T12:55:46.365Z,2.83
2023-08-29T12:58:13.029Z,3.27
2023-08-29T13:00:42.372Z,3.20
2023-08-29T13:03:09.244Z,3.27
2023-08-29T13:05:35.948Z,4.07
2023-08-29T13:08:04.273Z,3.93
2023-08-29T13:10:32.087Z,2.73
2023-08-29T13:12:58.738Z,2.87
2023-08-29T13:15:33.798Z,2.03
2023-08-29T13:18:08.135Z,2.30
2023-08-29T13:20:35.387Z,2.80
2023-08-29T13:23:02.202Z,2.10
2023-08-29T13:25:30.067Z,2.00
2023-08-29T13:27:56.941Z,2.17
2023-08-29T13:30:23.607Z,1.77
2023-08-29T13:32:51.021Z,2.00
2023-08-29T13:35:18.741Z,2.93
2023-08-29T13:37:46.522Z,3.13
2023-08-29T13:40:13.554Z,3.20
2023-08-29T13:42:40.220Z,1.77
2023-08-29T13:45:08.122Z,2.40
2023-08-29T13:47:34.877Z,1.50
2023-08-29T13:50:01.624Z,1.77
2023-08-29T13:52:28.227Z,3.30
2023-08-29T13:54:54.924Z,1.30
2023-08-29T13:57:21.670Z,1.37
2023-08-29T13:59:48.658Z,1.90
2023-08-29T14:02:15.325Z,2.13
2023-08-29T14:04:42.028Z,2.17
2023-08-29T14:07:09.443Z,2.23
2023-08-29T14:09:36.031Z,2.47
2023-08-29T14:12:02.604Z,1.43
2023-08-29T14:14:29.552Z,2.17
2023-08-29T14:16:56.194Z,2.50
2023-08-29T14:19:23.214Z,1.20
2023-08-29T14:21:49.991Z,1.53
2023-08-29T14:24:16.635Z,4.60
2023-08-29T14:26:43.435Z,1.43
2023-08-29T14:29:10.357Z,1.63
2023-08-29T14:31:37.246Z,1.23
2023-08-29T14:34:04.483Z,3.03
2023-08-29T14:36:33.659Z,1.00
2023-08-29T14:39:01.732Z,3.20
2023-08-29T14:41:28.646Z,1.57
2023-08-29T14:43:55.516Z,1.70
2023-08-29T14:46:23.028Z,1.63
2023-08-29T14:48:50.117Z,1.43
2023-08-29T14:51:16.839Z,3.50
2023-08-29T14:53:43.465Z,2.07
2023-08-29T14:56:10.234Z,2.03
2023-08-29T14:58:36.863Z,17.70
2023-08-29T15:01:03.657Z,1.77
2023-08-29T15:03:30.634Z,1.60
2023-08-29T15:05:58.282Z,1.90
2023-08-29T15:08:27.002Z,2.33
2023-08-29T15:10:54.588Z,2.27
2023-08-29T15:13:21.677Z,1.07
2023-08-29T15:15:48.820Z,1.80
2023-08-29T15:18:16.013Z,1.60
2023-08-29T15:20:43.447Z,1.67
2023-08-29T15:23:11.143Z,1.50
2023-08-29T15:25:37.826Z,2.90
2023-08-29T15:28:04.827Z,1.20
2023-08-29T15:30:32.291Z,1.87
2023-08-29T15:32:59.209Z,1.83
2023-08-29T15:35:25.947Z,1.93
2023-08-29T15:37:52.769Z,1.40
2023-08-29T15:40:19.476Z,1.73
2023-08-29T15:42:46.210Z,1.83
2023-08-29T15:45:12.880Z,1.02
2023-08-29T15:47:39.625Z,2.03
2023-08-29T15:50:06.804Z,1.53
2023-08-29T15:52:33.506Z,1.10
2023-08-29T15:55:00.124Z,3.27
2023-08-29T15:57:26.773Z,1.67
2023-08-29T15:59:53.345Z,2.57
2023-08-29T16:02:19.965Z,2.50
2023-08-29T16:04:46.901Z,1.20
2023-08-29T16:07:13.593Z,1.73
2023-08-29T16:09:40.150Z,1.97
2023-08-29T16:12:06.978Z,2.00
2023-08-29T16:14:33.602Z,2.50
2023-08-29T16:17:01.278Z,3.30
2023-08-29T16:19:28.045Z,2.30
2023-08-29T16:21:54.718Z,2.93
2023-08-29T16:24:21.671Z,3.13
2023-08-29T16:26:49.951Z,1.53
2023-08-29T16:29:17.331Z,1.30
2023-08-29T16:31:44.277Z,5.17
2023-08-29T16:34:11.186Z,2.10
2023-08-29T16:36:37.839Z,2.00
2023-08-29T16:39:04.655Z,1.63
2023-08-29T16:41:31.378Z,3.57
2023-08-29T16:43:58.052Z,1.90
2023-08-29T16:46:24.822Z,2.73
2023-08-29T16:48:51.650Z,2.90
2023-08-29T16:51:18.351Z,1.90
2023-08-29T16:53:44.964Z,2.27
2023-08-29T16:56:11.742Z,1.70
2023-08-29T16:58:38.489Z,2.00
2023-08-29T17:01:05.368Z,3.93
2023-08-29T17:03:32.200Z,2.53
2023-08-29T17:05:59.021Z,2.87
2023-08-29T17:08:26.024Z,1.70
2023-08-29T17:10:53.213Z,1.30
2023-08-29T17:13:20.173Z,2.90
2023-08-29T17:15:46.993Z,2.03
2023-08-29T17:18:13.827Z,1.70
2023-08-29T17:20:40.680Z,2.30
2023-08-29T17:23:07.331Z,1.60
2023-08-29T17:25:34.809Z,2.27
2023-08-29T17:28:01.606Z,2.43
2023-08-29T17:30:28.474Z,1.80
2023-08-29T17:32:55.272Z,2.40
2023-08-29T17:35:22.243Z,2.43
2023-08-29T17:37:48.979Z,1.77
2023-08-29T17:40:15.727Z,2.20
2023-08-29T17:42:43.937Z,2.13
2023-08-29T17:45:11.085Z,3.53
2023-08-29T17:47:37.902Z,2.77
2023-08-29T17:50:05.713Z,3.13
2023-08-29T17:52:32.513Z,1.67
2023-08-29T17:54:59.318Z,3.23
2023-08-29T17:57:26.157Z,3.57
2023-08-29T17:59:56.279Z,2.43
2023-08-29T18:02:23.911Z,3.20
2023-08-29T18:04:51.326Z,3.63
2023-08-29T18:07:18.811Z,4.00
2023-08-29T18:10:05.182Z,4.10
2023-08-29T18:12:32.234Z,4.77
2023-08-29T18:14:59.525Z,3.17
2023-08-29T18:17:26.669Z,3.70
2023-08-29T18:19:54.417Z,3.27
2023-08-29T18:22:21.525Z,3.63
2023-08-29T18:24:48.281Z,3.23
2023-08-29T18:27:14.898Z,3.77
2023-08-29T18:29:41.707Z,2.13
2023-08-29T18:32:09.785Z,4.13
2023-08-29T18:34:37.168Z,2.13
2023-08-29T18:37:05.078Z,3.40
2023-08-29T18:39:31.972Z,2.00
2023-08-29T18:41:58.912Z,3.43
2023-08-29T18:44:25.877Z,2.67
2023-08-29T18:46:52.517Z,3.60
2023-08-29T18:49:19.135Z,3.50
2023-08-29T18:51:45.645Z,3.60
2023-08-29T18:54:12.280Z,3.40
2023-08-29T18:56:38.861Z,3.53
2023-08-29T18:59:05.404Z,2.43
2023-08-29T19:01:32.011Z,3.20
2023-08-29T19:03:58.663Z,3.27
2023-08-29T19:06:25.326Z,2.20
2023-08-29T19:08:52.722Z,2.43
2023-08-29T19:11:19.344Z,2.10
2023-08-29T19:13:45.886Z,2.47
2023-08-29T19:16:12.456Z,2.20
2023-08-29T19:18:40.291Z,3.13
2023-08-29T19:21:07.352Z,2.60
2023-08-29T19:23:34.061Z,2.90
2023-08-29T19:28:43.188Z,2.80
2023-08-29T19:31:09.766Z,2.77
2023-08-29T19:33:36.438Z,2.53
2023-08-29T19:36:12.750Z,3.77
2023-08-29T19:38:43.098Z,3.13
2023-08-29T19:41:10.587Z,3.50
2023-08-29T19:43:37.426Z,2.97
2023-08-29T19:46:04.077Z,3.20
2023-08-29T19:48:31.680Z,3.07
2023-08-29T19:50:58.976Z,3.47
2023-08-29T19:53:25.635Z,3.57
2023-08-29T19:55:54.556Z,2.90
2023-08-29T19:58:22.790Z,3.07
2023-08-29T20:00:50.908Z,3.53
2023-08-29T20:03:18.008Z,3.80
2023-08-29T20:05:45.294Z,4.70
2023-08-29T20:08:15.284Z,3.17
2023-08-29T20:10:42.573Z,3.47
2023-08-29T20:13:09.425Z,3.47
2023-08-29T20:15:40.602Z,3.90
2023-08-29T20:18:08.408Z,3.27
2023-08-29T20:20:38.477Z,3.53
2023-08-29T20:23:05.650Z,2.90
2023-08-29T20:25:32.651Z,4.00
2023-08-29T20:27:59.711Z,2.93
2023-08-29T20:30:26.467Z,2.90
2023-08-29T20:32:54.758Z,4.23
2023-08-29T20:35:22.979Z,3.97
2023-08-29T20:37:50.802Z,4.17
2023-08-29T20:40:18.722Z,3.50
2023-08-29T20:42:46.879Z,4.73
2023-08-29T20:45:14.094Z,2.70
2023-08-29T20:47:44.682Z,4.93
2023-08-29T20:50:11.911Z,3.80
2023-08-29T20:52:39.995Z,3.60
2023-08-29T20:55:10.019Z,3.17
2023-08-29T20:57:46.677Z,3.60
2023-08-29T21:00:18.605Z,5.53
2023-08-29T21:02:46.484Z,3.50
2023-08-29T21:05:13.650Z,3.50
2023-08-29T21:07:40.467Z,4.40
2023-08-29T21:10:08.325Z,3.27
2023-08-29T21:12:37.356Z,5.10
2023-08-29T21:15:04.195Z,3.60
2023-08-29T21:17:31.162Z,4.23
2023-08-29T21:19:57.972Z,4.10
2023-08-29T21:22:24.535Z,5.53
2023-08-29T21:24:51.242Z,3.97
2023-08-29T21:27:18.026Z,6.43
2023-08-29T21:29:44.746Z,4.47
2023-08-29T21:32:11.447Z,4.90
2023-08-29T21:34:38.131Z,4.43
2023-08-29T21:37:04.945Z,7.57
2023-08-29T21:39:31.931Z,3.70
2023-08-29T21:41:58.616Z,3.57
2023-08-29T21:44:25.279Z,4.77
2023-08-29T21:46:51.861Z,4.70
2023-08-29T21:49:18.965Z,4.37
2023-08-29T21:51:47.154Z,4.03
2023-08-29T21:54:13.767Z,4.63
2023-08-29T21:56:40.416Z,4.23
2023-08-29T21:59:06.988Z,5.10
2023-08-29T22:01:33.535Z,5.23
2023-08-29T22:04:00.174Z,6.17
2023-08-29T22:06:26.714Z,6.07
2023-08-29T22:08:53.278Z,4.70
2023-08-29T22:11:19.900Z,5.67
2023-08-29T22:13:46.489Z,5.13
2023-08-29T22:16:13.087Z,4.97
2023-08-29T22:18:39.701Z,5.30
2023-08-29T22:21:09.404Z,5.47
2023-08-29T22:23:35.948Z,5.20
2023-08-29T22:26:04.737Z,6.33
2023-08-29T22:28:31.376Z,5.20
2023-08-29T22:30:57.976Z,7.33
2023-08-29T22:33:24.513Z,5.60
2023-08-29T22:35:51.132Z,6.10
2023-08-29T22:38:17.759Z,5.60
2023-08-29T22:40:44.301Z,5.20
2023-08-29T22:43:10.939Z,5.03
2023-08-29T22:45:37.644Z,5.70
2023-08-29T22:48:04.481Z,6.43
2023-08-29T22:50:31.074Z,6.90
2023-08-29T22:52:57.688Z,6.20
2023-08-29T22:55:26.992Z,6.47
2023-08-29T22:57:53.756Z,6.97
2023-08-29T23:00:21.593Z,6.40
2023-08-29T23:02:48.656Z,6.50
2023-08-29T23:05:15.230Z,6.40
2023-08-29T23:07:42.009Z,5.70
2023-08-29T23:10:09.605Z,5.90
2023-08-29T23:12:36.122Z,5.97
2023-08-29T23:15:02.820Z,5.77
2023-08-29T23:17:29.439Z,6.57
2023-08-29T23:19:56.118Z,8.33
2023-08-29T23:22:22.993Z,7.27
2023-08-29T23:24:49.543Z,9.07
2023-08-29T23:27:16.108Z,7.87
2023-08-29T23:29:43.685Z,7.07
2023-08-29T23:32:10.264Z,8.20
2023-08-29T23:34:37.089Z,7.90
2023-08-29T23:37:03.761Z,7.43
2023-08-29T23:39:30.444Z,7.37
2023-08-29T23:41:59.104Z,7.27
2023-08-29T23:44:25.709Z,10.47
2023-08-29T23:46:52.304Z,8.17
2023-08-29T23:49:19.032Z,10.13
2023-08-29T23:51:45.611Z,8.87
2023-08-29T23:54:12.195Z,10.00
2023-08-29T23:56:38.941Z,8.23
2023-08-29T23:59:05.666Z,9.23
